Terminal Aerodrome Forecast
Issued by NWS Wakefield, VA

Home | Current Version | Previous Version | Text Only | Print | Product List | Glossary On
Versions: 1 2 3 4 5 6 7 8 9 10 11 12 13 14 15 16 17 18 19 20
056
FTUS41 KAKQ 242340
TAFECG
TAF
KECG 242340Z 2500/2524 VRB03KT P6SM SCT100 BKN250
     FM250800 02005KT 5SM BR BKN015 OVC025
     FM251400 04010KT P6SM OVC025=

USA.gov is the U.S. government's official web portal to all federal, state and local government web resources and services.